Terminal Aerodrome Forecast
Issued by NWS

Home | Current Version | Previous Version | Text Only | Print | Product List | Glossary On
Versions: 1 2 3 4 5 6 7 8 9 10 11 12 13 14 15
000
FTAK31 PAJN 272326
TAFAGY
TAF
PAGY 272326Z 2800/2824 VRB04KT P6SM -RA SCT025 OVC040
      TEMPO 2800/2804 5SM -RA BR OVC025
     FM280500 20011KT P6SM -SHRA BKN025 OVC035
     FM281200 20006KT P6SM VCSH SCT015 OVC045
     FM282000 21014KT P6SM BKN050
      AMD LTD TO CLD VIS AND WIND=

USA.gov is the U.S. government's official web portal to all federal, state and local government web resources and services.